Time;durP1;ratioP1;P1;durP2;ratioP2;P2;SDS_P1;SDS_P2;PMS_P1;PMS_P2;Temp;Humidity;BMP_temperature;BMP_pressure;BME280_temperature;BME280_humidity;BME280_pressure;Samples;Min_cycle;Max_cycle;Signal;HPM_P1;HPM_P2
2022/04/23 00:00:09;;;;;;;23.70;15.80;;;;;;;5.46;83.62;97621.51;105678;1281;25384;-75
2022/04/23 00:03:01;;;;;;;22.90;15.50;;;;;;;5.46;83.49;97619.35;105572;1282;138633;-75
2022/04/23 00:05:28;;;;;;;22.10;14.80;;;;;;;5.45;83.36;97618.78;105557;1282;23927;-76
2022/04/23 00:07:56;;;;;;;23.10;15.30;;;;;;;5.43;83.63;97619.27;105529;1281;137686;-75
2022/04/23 00:10:23;;;;;;;24.00;15.20;;;;;;;5.43;83.55;97615.33;105666;1281;22594;-75
2022/04/23 00:12:50;;;;;;;24.40;15.30;;;;;;;5.43;83.45;97616.44;105612;1282;25338;-75
2022/04/23 00:15:17;;;;;;;28.10;16.20;;;;;;;5.40;83.37;97615.20;105523;1282;137218;-75
2022/04/23 00:17:46;;;;;;;25.20;17.10;;;;;;;5.37;83.11;97617.71;105595;1283;22760;-75
2022/04/23 00:20:13;;;;;;;24.00;15.60;;;;;;;5.34;83.37;97614.55;105634;1281;138404;-75
2022/04/23 00:22:40;;;;;;;20.70;13.80;;;;;;;5.36;83.48;97615.52;105761;1281;22611;-75
2022/04/23 00:25:08;;;;;;;23.70;14.70;;;;;;;5.37;83.38;97610.59;105730;1281;138666;-75
2022/04/23 00:27:35;;;;;;;23.70;15.40;;;;;;;5.37;83.27;97609.35;105716;1281;22768;-75
2022/04/23 00:30:03;;;;;;;22.10;15.50;;;;;;;5.33;83.18;97606.89;105459;1282;22537;-75
2022/04/23 00:32:31;;;;;;;23.20;15.50;;;;;;;5.30;83.18;97605.60;105641;1282;137800;-75
2022/04/23 00:34:58;;;;;;;22.40;14.70;;;;;;;5.28;83.10;97606.50;105616;1282;22578;-75
2022/04/23 00:37:25;;;;;;;24.00;15.30;;;;;;;5.28;83.28;97605.84;105453;1282;138684;-75
2022/04/23 00:39:52;;;;;;;20.20;14.10;;;;;;;5.29;83.27;97604.13;105668;1282;22565;-75
2022/04/23 00:42:19;;;;;;;20.70;14.30;;;;;;;5.28;83.11;97602.39;105596;1282;30316;-75
2022/04/23 00:44:46;;;;;;;20.20;13.80;;;;;;;5.26;83.00;97606.80;105591;1281;137707;-75
2022/04/23 00:47:27;;;;;;;21.70;14.80;;;;;;;5.18;82.84;97612.77;105642;1281;23341;-75
2022/04/23 00:49:54;;;;;;;23.30;15.00;;;;;;;5.12;82.93;97610.78;105614;1281;138392;-75
2022/04/23 00:52:21;;;;;;;20.00;14.20;;;;;;;5.08;83.02;97610.48;105572;1282;24316;-74
2022/04/23 00:54:47;;;;;;;19.40;12.80;;;;;;;5.04;83.03;97609.00;105650;1282;23193;-77
2022/04/23 00:57:15;;;;;;;20.80;12.20;;;;;;;4.98;83.06;97607.17;105508;1282;137948;-75
2022/04/23 00:59:43;;;;;;;22.10;13.70;;;;;;;4.92;83.08;97608.10;105490;1284;25039;-75
2022/04/23 01:02:10;;;;;;;20.70;13.20;;;;;;;4.87;83.34;97610.81;105527;1284;138772;-76
2022/04/23 01:04:37;;;;;;;20.20;14.30;;;;;;;4.84;83.36;97609.78;105584;1284;22544;-76
2022/04/23 01:07:06;;;;;;;19.70;13.10;;;;;;;4.82;83.34;97606.61;105461;1284;138633;-75
2022/04/23 01:09:33;;;;;;;17.50;12.20;;;;;;;4.80;83.24;97605.48;105600;1284;23319;-75
2022/04/23 01:12:02;;;;;;;16.90;11.90;;;;;;;4.78;83.51;97610.33;105375;1282;23144;-75
2022/04/23 01:14:29;;;;;;;;;;;;;;;4.75;83.29;97610.90;105637;1282;137850;-75
2022/04/23 01:16:56;;;;;;;19.10;13.10;;;;;;;4.73;83.67;97610.04;105699;1282;22544;-75
2022/04/23 01:19:23;;;;;;;18.20;12.90;;;;;;;4.75;83.66;97614.39;105633;1282;138297;-75
2022/04/23 01:21:50;;;;;;;18.70;12.10;;;;;;;4.76;83.39;97611.02;105554;1282;22499;-75
2022/04/23 01:24:19;;;;;;;19.40;13.00;;;;;;;4.75;83.18;97613.59;105652;1284;24552;-75
2022/04/23 01:26:45;;;;;;;20.30;12.90;;;;;;;4.77;83.46;97612.41;105588;1282;138814;-75
2022/04/23 01:29:13;;;;;;;20.90;12.00;;;;;;;4.80;83.46;97612.55;105650;1282;23008;-75
2022/04/23 01:31:53;;;;;;;20.40;13.70;;;;;;;4.83;83.53;97612.29;105773;1281;137797;-75
2022/04/23 01:34:20;;;;;;;17.90;11.60;;;;;;;4.85;83.27;97612.13;105688;1282;25369;-75
2022/04/23 01:36:47;;;;;;;18.30;12.40;;;;;;;4.84;83.06;97612.27;105692;1281;22560;-75
2022/04/23 01:39:16;;;;;;;19.50;12.20;;;;;;;4.83;82.82;97611.59;105615;1281;138056;-75
2022/04/23 01:41:46;;;;;;;20.10;13.50;;;;;;;4.83;82.76;97605.83;105788;1281;25269;-76
2022/04/23 01:44:14;;;;;;;17.30;11.70;;;;;;;4.83;82.63;97605.86;105802;1282;138326;-75
2022/04/23 01:46:41;;;;;;;18.20;11.80;;;;;;;4.84;82.76;97602.23;105900;1282;22556;-75
2022/04/23 01:49:09;;;;;;;19.30;12.50;;;;;;;4.84;82.60;97603.89;105480;1282;138144;-75
2022/04/23 01:51:35;;;;;;;18.70;12.10;;;;;;;4.81;82.56;97604.52;105989;1281;25238;-76
2022/04/23 01:54:02;;;;;;;17.90;12.60;;;;;;;4.78;82.38;97602.07;105681;1281;22563;-76
2022/04/23 01:56:29;;;;;;;18.30;12.30;;;;;;;4.75;82.48;97604.48;105849;1280;138009;-76
2022/04/23 01:58:56;;;;;;;16.20;12.20;;;;;;;4.74;82.44;97602.88;105676;1281;24235;-75
2022/04/23 02:01:24;;;;;;;14.40;10.00;;;;;;;4.74;82.59;97604.11;105656;1281;138096;-75
2022/04/23 02:03:51;;;;;;;16.30;11.20;;;;;;;4.70;82.28;97602.40;105753;1282;25269;-75
2022/04/23 02:06:18;;;;;;;16.50;12.10;;;;;;;4.68;82.43;97602.13;105848;1282;25373;-75
2022/04/23 02:08:45;;;;;;;20.80;12.30;;;;;;;4.65;82.49;97598.34;105569;1283;138052;-75
2022/04/23 02:11:12;;;;;;;20.10;13.30;;;;;;;4.60;82.27;97597.62;105986;1282;25278;-75
2022/04/23 02:13:39;;;;;;;19.10;12.80;;;;;;;4.61;82.17;97604.48;105619;1282;138428;-75
2022/04/23 02:16:09;;;;;;;19.70;13.20;;;;;;;4.58;82.19;97607.58;105892;1281;22541;-75
2022/04/23 02:18:39;;;;;;;18.10;11.60;;;;;;;4.54;82.08;97609.85;106103;1281;22582;-75
2022/04/23 02:21:09;;;;;;;19.90;12.70;;;;;;;4.51;82.20;97608.94;105829;1281;137744;-75
2022/04/23 02:23:36;;;;;;;16.60;11.70;;;;;;;4.47;82.14;97610.89;106080;1281;24226;-75
2022/04/23 02:26:05;;;;;;;19.80;12.20;;;;;;;4.42;82.12;97609.17;105553;1281;138869;-75
2022/04/23 02:28:38;;;;;;;21.70;12.90;;;;;;;4.36;82.07;97610.10;105695;1282;22583;-75
2022/04/23 02:31:08;;;;;;;21.60;13.20;;;;;;;4.33;82.17;97612.02;105506;1282;138427;-75
2022/04/23 02:33:37;;;;;;;25.00;13.70;;;;;;;4.30;82.12;97614.00;105667;1282;22570;-75
2022/04/23 02:36:07;;;;;;;20.90;13.30;;;;;;;4.27;82.01;97617.44;105669;1282;22656;-75
2022/04/23 02:38:39;;;;;;;19.10;12.30;;;;;;;4.23;82.21;97618.34;105472;1282;138215;-75
2022/04/23 02:41:07;;;;;;;17.70;12.50;;;;;;;4.22;82.22;97613.55;105711;1282;22609;-75
2022/04/23 02:43:35;;;;;;;20.60;12.80;;;;;;;4.21;82.39;97614.02;105661;1282;137755;-75
2022/04/23 02:46:03;;;;;;;18.50;12.50;;;;;;;4.19;82.28;97617.27;105719;1282;22556;-77
2022/04/23 02:48:30;;;;;;;20.90;13.80;;;;;;;4.18;82.13;97620.39;105768;1282;25541;-75
2022/04/23 02:50:57;;;;;;;18.40;12.10;;;;;;;4.15;82.04;97621.71;105676;1282;138377;-75
2022/04/23 02:53:26;;;;;;;21.60;13.30;;;;;;;4.13;82.12;97625.44;105421;1283;22731;-76
2022/04/23 02:56:11;;;;;;;20.10;12.30;;;;;;;4.09;82.17;97621.86;105675;1282;137464;-75
2022/04/23 02:58:52;;;;;;;22.90;14.00;;;;;;;4.05;82.22;97619.96;105645;1285;22643;-75
2022/04/23 03:01:22;;;;;;;22.70;14.20;;;;;;;4.02;82.38;97620.20;105648;1281;137724;-75
2022/04/23 03:03:50;;;;;;;22.70;13.40;;;;;;;3.98;82.24;97620.36;105530;1282;22592;-75
2022/04/23 03:06:28;;;;;;;22.40;13.80;;;;;;;3.94;82.30;97619.27;105636;1282;24070;-75
2022/04/23 03:09:02;;;;;;;19.10;12.60;;;;;;;3.90;82.07;97623.89;105597;1282;138099;-76
2022/04/23 03:11:30;;;;;;;18.90;12.70;;;;;;;3.86;82.26;97624.80;105655;1282;22567;-76
2022/04/23 03:14:15;;;;;;;22.20;13.40;;;;;;;3.84;82.56;97626.73;105450;1284;138244;-76
2022/04/23 03:16:42;;;;;;;22.20;13.50;;;;;;;3.84;82.55;97632.69;105643;1281;22539;-75
2022/04/23 03:19:09;;;;;;;23.10;14.50;;;;;;;3.83;82.50;97631.41;105515;1281;138444;-75
2022/04/23 03:21:36;;;;;;;20.30;13.10;;;;;;;3.82;82.33;97635.81;105614;1282;25365;-75
2022/04/23 03:24:03;;;;;;;19.80;12.60;;;;;;;3.83;82.44;97639.70;105569;1282;25355;-75
2022/04/23 03:26:30;;;;;;;21.30;13.00;;;;;;;3.81;82.31;97643.91;105560;1282;137859;-75
2022/04/23 03:28:57;;;;;;;19.80;13.50;;;;;;;3.76;82.18;97644.25;105517;1282;24448;-75
2022/04/23 03:31:24;;;;;;;22.50;13.30;;;;;;;3.72;82.28;97643.70;105609;1282;137778;-75
2022/04/23 03:33:54;;;;;;;27.20;13.70;;;;;;;3.69;82.40;97643.10;105629;1282;25501;-75
2022/04/23 03:36:22;;;;;;;23.50;13.70;;;;;;;3.67;82.31;97644.48;105708;1282;22555;-75
2022/04/23 03:38:49;;;;;;;21.10;12.00;;;;;;;3.65;82.62;97647.77;105194;1284;138008;-75
2022/04/23 03:41:17;;;;;;;21.20;13.40;;;;;;;3.66;82.66;97645.74;105574;1282;24321;-75
2022/04/23 03:43:58;;;;;;;21.30;13.20;;;;;;;3.66;82.63;97647.36;105538;1282;137820;-75
2022/04/23 03:46:25;;;;;;;21.30;12.30;;;;;;;3.62;82.55;97648.55;105496;1282;24436;-75
2022/04/23 03:48:56;;;;;;;27.60;15.30;;;;;;;3.63;82.58;97647.92;105600;1282;24346;-75
2022/04/23 03:51:22;;;;;;;21.80;12.70;;;;;;;3.63;82.67;97653.27;105689;1282;138058;-77
2022/04/23 03:53:50;;;;;;;19.20;12.60;;;;;;;3.63;82.52;97653.27;105593;1282;24308;-75
2022/04/23 03:56:18;;;;;;;21.70;11.80;;;;;;;3.62;82.46;97654.46;105539;1282;137960;-75
2022/04/23 03:58:46;;;;;;;19.10;12.70;;;;;;;3.61;82.76;97655.13;105659;1282;22564;-75
2022/04/23 04:01:13;;;;;;;18.60;12.50;;;;;;;3.61;82.71;97652.58;105456;1282;138687;-75
2022/04/23 04:03:40;;;;;;;19.30;13.30;;;;;;;3.60;82.74;97652.58;105653;1282;24324;-77
2022/04/23 04:06:07;;;;;;;19.40;12.30;;;;;;;3.58;82.62;97650.15;105668;1282;25355;-75
2022/04/23 04:08:50;;;;;;;19.00;11.40;;;;;;;3.58;82.87;97655.36;105652;1282;139378;-75
2022/04/23 04:11:17;;;;;;;;;;;;;;;3.60;82.93;97654.58;105854;1282;22554;-75
2022/04/23 04:13:44;;;;;;;18.00;11.80;;;;;;;3.63;83.07;97658.89;105488;1282;124566;-75
2022/04/23 04:16:12;;;;;;;18.20;11.40;;;;;;;3.63;82.91;97660.14;105828;1281;25501;-75
2022/04/23 04:18:39;;;;;;;21.90;12.40;;;;;;;3.63;82.92;97658.32;105658;1282;24239;-75
2022/04/23 04:21:07;;;;;;;18.70;12.40;;;;;;;3.63;82.88;97656.75;105650;1282;137596;-75
2022/04/23 04:23:34;;;;;;;20.50;12.70;;;;;;;3.64;82.88;97656.19;105717;1282;23187;-75
2022/04/23 04:26:01;;;;;;;19.20;12.30;;;;;;;3.66;82.96;97650.83;105499;1282;138209;-75
2022/04/23 04:28:30;;;;;;;17.50;11.60;;;;;;;3.69;82.88;97657.80;105715;1282;22585;-76
2022/04/23 04:33:41;;;;;;;19.90;12.60;;;;;;;3.80;83.08;97653.85;105641;1282;137635;-75
2022/04/23 04:36:07;;;;;;;18.80;12.20;;;;;;;3.86;83.04;97660.48;105642;1281;25272;-75
2022/04/23 04:38:35;;;;;;;23.10;14.80;;;;;;;3.89;82.89;97662.80;105520;1281;138091;-75
2022/04/23 04:41:04;;;;;;;27.10;15.40;;;;;;;3.90;82.54;97664.23;105747;1283;23208;-76
2022/04/23 04:43:31;;;;;;;22.90;14.80;;;;;;;3.91;82.33;97667.66;105307;1281;138556;-75
2022/04/23 04:46:01;;;;;;;25.10;15.00;;;;;;;3.92;82.29;97666.80;105646;1282;22548;-75
2022/04/23 04:48:28;;;;;;;26.00;15.20;;;;;;;3.93;82.32;97667.86;105441;1284;24390;-75
2022/04/23 04:51:08;;;;;;;26.10;14.40;;;;;;;3.96;82.42;97671.48;105546;1282;137473;-75
2022/04/23 04:53:35;;;;;;;26.60;15.60;;;;;;;3.98;82.32;97676.04;105576;1282;22732;-75
2022/04/23 04:56:16;;;;;;;24.00;13.90;;;;;;;3.97;81.88;97674.79;105516;1281;137756;-75
2022/04/23 04:58:43;;;;;;;25.40;15.60;;;;;;;3.92;81.61;97678.36;105626;1281;23184;-75
2022/04/23 05:01:10;;;;;;;25.20;14.50;;;;;;;3.87;81.61;97675.13;105729;1281;22562;-75
2022/04/23 05:03:39;;;;;;;22.20;14.50;;;;;;;3.89;81.90;97677.60;105656;1281;138110;-75
2022/04/23 05:06:10;;;;;;;22.50;12.60;;;;;;;3.91;81.82;97678.20;105667;1282;25611;-75
2022/04/23 05:08:38;;;;;;;22.50;13.00;;;;;;;3.91;81.75;97683.02;105272;1284;137784;-76
2022/04/23 05:11:09;;;;;;;21.00;13.50;;;;;;;3.91;81.89;97685.54;105468;1284;25279;-76
2022/04/23 05:13:38;;;;;;;23.40;14.50;;;;;;;3.92;81.92;97683.09;105206;1285;137967;-75
2022/04/23 05:16:06;;;;;;;28.90;15.10;;;;;;;3.92;82.05;97677.86;105391;1282;24082;-75
2022/04/23 05:18:34;;;;;;;24.30;14.30;;;;;;;3.94;82.11;97676.69;105754;1282;24404;-75
2022/04/23 05:21:02;;;;;;;22.20;14.40;;;;;;;3.96;81.97;97678.32;105624;1282;138395;-75
2022/04/23 05:23:28;;;;;;;22.00;12.40;;;;;;;3.96;81.99;97680.38;105609;1282;25502;-75
2022/04/23 05:25:57;;;;;;;23.00;13.80;;;;;;;4.00;82.47;97676.16;105453;1284;138129;-75
2022/04/23 05:28:24;;;;;;;23.10;13.90;;;;;;;4.06;82.36;97679.10;105754;1282;22589;-75
2022/04/23 05:30:51;;;;;;;21.10;13.20;;;;;;;4.10;82.43;97677.90;105622;1282;23485;-75
2022/04/23 05:33:18;;;;;;;22.60;14.70;;;;;;;4.15;82.49;97676.64;105588;1282;138469;-75
2022/04/23 05:35:45;;;;;;;22.10;13.70;;;;;;;4.22;82.29;97670.22;105636;1282;23896;-76
2022/04/23 05:38:11;;;;;;;24.60;14.60;;;;;;;4.30;82.22;97672.02;105599;1282;138227;-76
2022/04/23 05:40:52;;;;;;;24.60;15.80;;;;;;;4.39;82.06;97677.17;105685;1282;24945;-75
2022/04/23 05:43:33;;;;;;;23.40;14.70;;;;;;;4.47;81.55;97680.33;105063;1282;138276;-75
2022/04/23 05:46:16;;;;;;;22.90;14.70;;;;;;;4.55;81.47;97678.94;105659;1281;22565;-75
2022/04/23 05:48:44;;;;;;;23.50;14.10;;;;;;;4.62;81.20;97681.23;105906;1282;25278;-75
2022/04/23 05:51:11;;;;;;;20.80;13.30;;;;;;;4.63;80.53;97684.57;105398;1283;138402;-75
2022/04/23 05:53:38;;;;;;;20.80;12.60;;;;;;;4.62;80.15;97686.04;105572;1284;25244;-75
2022/04/23 05:56:05;;;;;;;21.30;12.80;;;;;;;4.61;80.19;97683.36;105534;1285;138597;-75
2022/04/23 05:58:36;;;;;;;21.30;12.30;;;;;;;4.61;80.37;97681.52;105716;1282;30711;-75
2022/04/23 06:01:04;;;;;;;19.70;11.70;;;;;;;4.62;80.43;97684.39;105598;1282;25276;-75
2022/04/23 06:03:31;;;;;;;19.90;12.70;;;;;;;4.63;80.32;97682.95;105550;1281;137789;-75
2022/04/23 06:06:12;;;;;;;16.40;11.80;;;;;;;4.67;80.53;97685.48;105509;1282;25332;-75
2022/04/23 06:08:42;;;;;;;17.80;11.60;;;;;;;4.73;80.45;97686.94;105582;1282;138055;-75
2022/04/23 06:11:09;;;;;;;17.70;11.20;;;;;;;4.80;80.45;97689.30;105689;1282;22551;-75
2022/04/23 06:13:36;;;;;;;17.40;12.00;;;;;;;4.87;80.08;97689.13;105480;1282;138366;-77
2022/04/23 06:16:03;;;;;;;18.60;11.70;;;;;;;4.94;80.02;97690.08;105650;1282;23085;-76
2022/04/23 06:18:44;;;;;;;18.10;10.40;;;;;;;5.06;79.99;97695.23;105672;1281;22547;-75
2022/04/23 06:21:11;;;;;;;18.90;12.20;;;;;;;5.16;79.94;97694.17;105475;1281;137634;-75
2022/04/23 06:23:38;;;;;;;15.80;10.10;;;;;;;5.28;79.84;97694.48;105444;1282;22844;-77
2022/04/23 06:26:06;;;;;;;12.90;8.70;;;;;;;5.40;79.17;97696.48;105567;1281;138150;-76
2022/04/23 06:28:33;;;;;;;14.10;8.80;;;;;;;5.50;78.22;97694.52;105688;1282;22533;-75
2022/04/23 06:31:01;;;;;;;14.00;8.60;;;;;;;5.62;78.40;97693.30;105592;1282;22541;-75
2022/04/23 06:33:28;;;;;;;10.30;7.70;;;;;;;5.75;77.98;97691.72;105308;1282;138264;-76
2022/04/23 06:35:55;;;;;;;14.70;7.70;;;;;;;5.86;77.72;97688.09;105126;1282;24219;-77
2022/04/23 06:38:21;;;;;;;12.40;7.60;;;;;;;5.98;77.43;97685.90;105182;1282;137296;-76
2022/04/23 06:40:48;;;;;;;10.80;7.40;;;;;;;6.09;77.32;97682.73;105285;1282;22734;-76
2022/04/23 06:43:15;;;;;;;10.20;6.70;;;;;;;6.20;77.10;97677.95;105415;1282;22579;-76
2022/04/23 06:45:45;;;;;;;11.50;7.40;;;;;;;6.32;76.43;97680.70;106064;1282;137135;-75
2022/04/23 06:48:12;;;;;;;7.90;5.90;;;;;;;6.41;75.41;97680.02;105932;1282;22599;-75
2022/04/23 06:50:39;;;;;;;8.40;6.20;;;;;;;6.51;75.54;97680.67;105709;1282;138522;-73
2022/04/23 06:53:06;;;;;;;8.30;6.30;;;;;;;6.67;75.39;97680.73;105515;1284;22576;-73
2022/04/23 06:55:33;;;;;;;10.30;6.90;;;;;;;6.83;74.65;97674.79;106064;1284;137856;-74
2022/04/23 06:58:00;;;;;;;9.20;6.30;;;;;;;7.03;74.23;97675.23;105970;1282;23363;-75
2022/04/23 07:00:27;;;;;;;7.50;5.60;;;;;;;7.20;74.05;97672.66;106095;1281;22541;-75
2022/04/23 07:02:54;;;;;;;7.70;5.50;;;;;;;7.34;73.95;97670.16;106047;1282;137458;-75
2022/04/23 07:05:35;;;;;;;7.50;5.20;;;;;;;7.50;73.19;97668.23;106062;1281;24333;-75
2022/04/23 07:08:03;;;;;;;7.20;5.40;;;;;;;7.60;72.33;97665.62;105758;1283;137747;-75
2022/04/23 07:10:32;;;;;;;7.40;5.30;;;;;;;7.70;72.28;97667.32;105848;1282;24368;-75
2022/04/23 07:12:59;;;;;;;9.30;6.00;;;;;;;7.84;72.20;97669.11;105646;1282;24448;-75
2022/04/23 07:15:28;;;;;;;7.10;5.80;;;;;;;7.97;71.76;97666.70;105349;1282;137715;-75
2022/04/23 07:18:09;;;;;;;7.70;5.80;;;;;;;8.11;71.21;97666.59;105731;1281;24323;-75
2022/04/23 07:20:39;;;;;;;7.90;6.30;;;;;;;8.24;70.81;97667.38;105752;1281;137675;-75
2022/04/23 07:26:00;;;;;;;9.10;6.30;;;;;;;8.48;69.18;97660.75;105550;1281;138068;-75
2022/04/23 07:28:27;;;;;;;9.00;6.10;;;;;;;8.58;68.67;97661.41;105254;1282;22787;-75
2022/04/23 07:30:54;;;;;;;7.40;4.70;;;;;;;8.68;68.30;97662.24;105469;1282;235120;-75
2022/04/23 07:38:57;;;;;;;6.60;5.50;;;;;;;8.97;66.43;97653.94;105698;1283;137320;-75
2022/04/23 07:41:38;;;;;;;6.20;5.10;;;;;;;9.01;64.92;97654.42;105032;1284;22614;-75
2022/04/23 07:44:05;;;;;;;8.00;5.90;;;;;;;9.02;65.20;97647.48;105180;1282;137954;-76
2022/04/23 07:46:32;;;;;;;8.00;5.90;;;;;;;9.07;65.18;97645.65;105588;1282;25307;-76
2022/04/23 07:48:59;;;;;;;7.00;5.90;;;;;;;9.16;65.59;97648.88;105412;1282;23920;-76
2022/04/23 07:51:27;;;;;;;7.60;5.70;;;;;;;9.26;65.00;97647.08;105244;1281;137523;-75
2022/04/23 07:53:55;;;;;;;7.20;5.40;;;;;;;9.38;65.22;97648.84;105422;1281;24434;-75
2022/04/23 07:56:22;;;;;;;7.90;6.00;;;;;;;9.54;64.56;97648.87;105426;1281;138644;-75
2022/04/23 07:58:49;;;;;;;6.90;5.20;;;;;;;9.62;64.00;97649.81;105673;1281;24342;-76
2022/04/23 08:01:16;;;;;;;7.30;5.70;;;;;;;9.70;63.41;97648.08;105509;1282;22574;-76
2022/04/23 08:03:43;;;;;;;7.60;5.50;;;;;;;9.73;63.40;97648.11;105121;1282;137469;-76
2022/04/23 08:06:11;;;;;;;6.50;5.40;;;;;;;9.73;62.39;97646.26;105279;1282;25330;-76
2022/04/23 08:08:38;;;;;;;7.10;5.50;;;;;;;9.77;62.53;97648.13;105100;1284;137346;-76
2022/04/23 08:11:06;;;;;;;5.70;5.10;;;;;;;9.94;62.57;97643.27;105551;1282;25301;-76
2022/04/23 08:13:33;;;;;;;6.30;5.20;;;;;;;10.12;61.79;97640.01;105581;1281;137933;-76
2022/04/23 08:16:00;;;;;;;6.40;5.60;;;;;;;10.32;61.77;97640.70;105421;1283;22777;-76
2022/04/23 08:18:27;;;;;;;7.40;5.60;;;;;;;10.55;61.45;97635.02;105788;1283;22544;-76
2022/04/23 08:20:55;;;;;;;6.80;5.30;;;;;;;10.80;60.68;97626.67;105432;1282;138840;-76
2022/04/23 08:23:21;;;;;;;5.50;4.70;;;;;;;10.93;59.98;97630.30;105751;1282;24296;-75
2022/04/23 08:25:49;;;;;;;5.80;5.30;;;;;;;10.92;59.07;97626.98;105588;1283;140320;-76
2022/04/23 08:30:55;;;;;;;6.40;5.60;;;;;;;10.72;58.74;97623.26;105574;1281;22575;-76
2022/04/23 08:33:22;;;;;;;8.00;4.90;;;;;;;10.68;58.53;97625.25;105623;1282;137554;-76
2022/04/23 08:36:03;;;;;;;7.30;5.80;;;;;;;10.63;59.04;97615.75;105675;1284;25355;-75
2022/04/23 08:38:30;;;;;;;6.00;5.40;;;;;;;10.80;59.25;97619.25;105637;1282;138065;-75
2022/04/23 08:40:57;;;;;;;7.10;5.20;;;;;;;11.02;59.29;97613.87;105784;1282;22580;-75
2022/04/23 08:43:41;;;;;;;7.20;4.70;;;;;;;11.27;58.63;97611.19;105507;1282;138681;-74
2022/04/23 08:46:09;;;;;;;6.00;5.10;;;;;;;11.48;58.45;97608.61;105715;1285;23248;-74
2022/04/23 08:48:42;;;;;;;5.40;4.70;;;;;;;11.67;57.81;97603.91;105491;1283;24302;-74
2022/04/23 08:51:13;;;;;;;5.50;5.00;;;;;;;11.72;56.96;97601.95;105504;1281;137843;-75
2022/04/23 08:53:43;;;;;;;6.10;4.80;;;;;;;11.70;56.23;97603.96;105687;1281;25277;-74
2022/04/23 08:56:10;;;;;;;6.70;4.70;;;;;;;11.52;56.22;97605.60;105766;1281;137793;-74
2022/04/23 08:58:40;;;;;;;5.60;4.50;;;;;;;11.32;56.02;97604.06;105664;1282;26524;-74
2022/04/23 09:01:07;;;;;;;7.10;4.90;;;;;;;11.15;56.36;97599.63;105449;1282;22803;-74
2022/04/23 09:03:34;;;;;;;4.90;4.40;;;;;;;11.04;56.30;97598.35;105168;1284;137553;-74
2022/04/23 09:06:00;;;;;;;5.90;3.70;;;;;;;11.01;56.40;97596.44;105152;1284;22565;-74
2022/04/23 09:08:29;;;;;;;5.30;4.40;;;;;;;11.17;56.57;97592.20;105167;1282;137621;-74
2022/04/23 09:10:57;;;;;;;4.80;4.30;;;;;;;11.40;56.04;97592.51;105561;1281;22572;-74
2022/04/23 09:13:29;;;;;;;4.70;4.10;;;;;;;11.64;55.59;97589.26;105303;1282;24323;-75
2022/04/23 09:24:46;;;;;;;4.10;3.70;;;;;;;12.44;53.56;97586.07;105644;1282;22551;-75
2022/04/23 09:27:31;;;;;;;5.30;3.50;;;;;;;12.51;51.97;97585.44;105455;1282;137502;-75
2022/04/23 09:30:00;;;;;;;4.10;3.70;;;;;;;12.61;51.35;97585.12;105679;1282;22686;-75
2022/04/23 09:32:27;;;;;;;4.10;3.70;;;;;;;12.78;51.81;97582.85;105591;1283;138050;-75
2022/04/23 09:35:10;;;;;;;4.40;4.00;;;;;;;13.02;51.61;97578.73;105612;1282;22806;-75
2022/04/23 09:40:21;;;;;;;4.40;3.60;;;;;;;13.39;50.11;97570.86;105579;1283;137252;-75
2022/04/23 09:43:02;;;;;;;4.30;3.80;;;;;;;13.58;49.41;97572.19;105695;1284;22557;-74
2022/04/23 09:45:31;;;;;;;5.00;4.10;;;;;;;13.67;49.32;97573.42;105597;1283;137655;-74
2022/04/23 09:48:04;;;;;;;3.60;3.20;;;;;;;13.62;49.10;97571.33;105584;1281;24686;-74
2022/04/23 09:50:38;;;;;;;4.30;3.90;;;;;;;13.60;48.98;97577.91;105286;1285;138155;-74
2022/04/23 09:53:14;;;;;;;3.80;3.50;;;;;;;13.68;49.24;97576.64;105915;1282;23031;-75
2022/04/23 09:55:41;;;;;;;4.20;3.70;;;;;;;13.92;49.14;97569.09;105654;1284;22556;-75
2022/04/23 09:58:10;;;;;;;6.90;3.90;;;;;;;14.17;47.88;97566.43;105480;1284;137700;-75
2022/04/23 10:00:41;;;;;;;4.50;4.10;;;;;;;14.35;49.29;97566.66;105711;1284;22555;-75
2022/04/23 10:03:09;;;;;;;4.50;3.70;;;;;;;14.43;47.98;97565.10;105618;1281;137468;-75
2022/04/23 10:05:51;;;;;;;4.00;3.70;;;;;;;14.57;46.88;97562.64;105463;1284;25376;-74
2022/04/23 10:08:33;;;;;;;4.90;4.20;;;;;;;14.63;46.61;97564.01;105535;1282;137752;-74
2022/04/23 10:11:14;;;;;;;4.90;4.40;;;;;;;14.71;46.52;97562.88;105591;1283;25385;-74
2022/04/23 10:13:45;;;;;;;4.40;3.50;;;;;;;14.50;46.36;97562.44;105497;1284;32823;-74
2022/04/23 10:16:13;;;;;;;4.50;4.20;;;;;;;14.31;46.38;97566.39;105560;1284;137920;-74
2022/04/23 10:18:42;;;;;;;5.30;4.20;;;;;;;14.17;47.02;97566.27;105642;1284;25273;-74
2022/04/23 10:21:10;;;;;;;;;;;;;;;14.19;47.11;97573.20;105645;1283;138207;-74
2022/04/23 10:24:09;;;;;;;4.70;4.10;;;;;;;14.43;47.52;97573.81;105532;1284;22914;-75
2022/04/23 10:26:51;;;;;;;4.50;4.10;;;;;;;14.70;47.04;97572.95;105471;1284;137831;-74
2022/04/23 10:29:21;;;;;;;4.90;4.50;;;;;;;14.81;46.52;97568.64;105715;1284;22687;-75
2022/04/23 10:32:10;;;;;;;4.20;3.80;;;;;;;14.76;45.40;97571.56;105551;1284;22547;-75
2022/04/23 10:34:39;;;;;;;4.90;3.80;;;;;;;14.75;45.76;97568.84;105698;1284;137348;-75
2022/04/23 10:37:27;;;;;;;5.70;3.60;;;;;;;14.99;45.58;97564.80;105691;1284;24212;-75
2022/04/23 10:39:53;;;;;;;5.20;4.70;;;;;;;15.08;44.68;97563.45;105513;1284;137509;-75
2022/04/23 10:42:25;;;;;;;7.10;4.20;;;;;;;15.24;45.24;97562.89;105736;1282;23069;-75
2022/04/23 10:44:56;;;;;;;5.00;4.50;;;;;;;15.34;44.25;97568.23;105618;1282;137598;-75
2022/04/23 10:47:34;;;;;;;5.00;4.50;;;;;;;15.31;43.75;97567.02;105560;1284;22719;-75
2022/04/23 10:50:20;;;;;;;6.40;5.10;;;;;;;15.23;44.56;97567.95;105544;1284;137680;-75
2022/04/23 10:52:53;;;;;;;5.60;5.00;;;;;;;15.14;44.83;97564.45;105611;1282;22612;-74
2022/04/23 10:55:21;;;;;;;5.30;4.80;;;;;;;15.26;46.13;97565.21;105316;1285;22715;-74
2022/04/23 10:57:55;;;;;;;5.50;4.60;;;;;;;15.25;44.98;97565.50;105489;1283;137636;-74
2022/04/23 11:00:24;;;;;;;5.40;4.00;;;;;;;15.20;45.44;97566.89;105641;1284;23441;-74
2022/04/23 11:02:54;;;;;;;4.70;4.30;;;;;;;15.41;44.96;97564.44;105598;1282;138377;-75
2022/04/23 11:14:06;;;;;;;5.10;4.60;;;;;;;15.40;43.59;97564.61;105620;1284;22575;-75
2022/04/23 11:16:36;;;;;;;4.70;4.20;;;;;;;15.28;44.09;97564.97;105483;1284;137658;-75
2022/04/23 11:19:06;;;;;;;4.70;4.30;;;;;;;15.17;44.82;97565.20;105502;1283;26494;-75
2022/04/23 11:21:33;;;;;;;6.10;4.30;;;;;;;15.04;44.89;97563.13;105633;1284;137486;-75
2022/04/23 11:24:02;;;;;;;5.30;4.80;;;;;;;15.07;45.34;97559.14;105628;1283;25380;-75
2022/04/23 11:26:47;;;;;;;5.10;4.50;;;;;;;15.23;45.81;97560.16;105660;1284;22676;-75
2022/04/23 11:29:15;;;;;;;5.50;4.60;;;;;;;15.22;44.84;97556.39;105646;1284;137527;-75
2022/04/23 11:31:59;;;;;;;5.70;4.20;;;;;;;15.20;44.74;97556.52;105784;1282;25556;-75
2022/04/23 11:34:28;;;;;;;5.10;4.60;;;;;;;15.09;44.93;97553.23;105666;1282;137506;-75
2022/04/23 11:36:56;;;;;;;5.70;4.60;;;;;;;14.99;44.90;97552.94;105674;1284;22548;-75
2022/04/23 11:39:30;;;;;;;6.20;5.60;;;;;;;14.91;45.60;97553.71;105809;1284;137808;-74
2022/04/23 11:41:58;;;;;;;5.60;4.80;;;;;;;14.97;45.61;97552.58;105744;1281;23015;-75
2022/04/23 11:47:11;;;;;;;5.10;4.70;;;;;;;15.49;44.67;97546.26;105605;1283;137479;-74
2022/04/23 11:49:38;;;;;;;5.40;4.90;;;;;;;15.67;43.19;97543.87;105699;1284;22823;-74
2022/04/23 11:52:07;;;;;;;5.10;4.60;;;;;;;15.83;43.77;97547.64;105572;1282;137712;-74
2022/04/23 11:54:45;;;;;;;5.20;4.70;;;;;;;15.95;42.17;97549.33;105743;1281;22860;-74
2022/04/23 11:57:17;;;;;;;5.00;4.50;;;;;;;16.02;42.18;97543.23;105559;1281;137615;-74
2022/04/23 11:59:46;;;;;;;5.00;4.20;;;;;;;15.83;41.60;97539.60;105626;1283;23489;-74
2022/04/23 12:02:23;;;;;;;5.50;4.80;;;;;;;15.67;42.19;97544.09;105687;1284;22547;-74
2022/04/23 12:04:55;;;;;;;5.40;4.50;;;;;;;15.53;42.42;97539.42;105406;1282;137514;-74
2022/04/23 12:07:23;;;;;;;5.00;4.50;;;;;;;15.63;43.11;97547.61;106022;1284;22598;-74